Time;durP1;ratioP1;P1;durP2;ratioP2;P2;SDS_P1;SDS_P2;PMS_P1;PMS_P2;Temp;Humidity;BMP_temperature;BMP_pressure;BME280_temperature;BME280_humidity;BME280_pressure;Samples;Min_cycle;Max_cycle;Signal;HPM_P1;HPM_P2
2021/12/03 00:00:50;;;;;;;9.60;6.03;;;-0.90;99.90;;;;;;4970169;28;20041;-71
2021/12/03 00:03:16;;;;;;;8.50;6.35;;;;;;;;;;4970462;28;20061;-71
2021/12/03 00:05:41;;;;;;;12.63;8.27;;;-0.80;99.90;;;;;;4969844;28;20422;-71
2021/12/03 00:08:08;;;;;;;9.13;6.83;;;-0.80;99.90;;;;;;4969192;28;20039;-72
2021/12/03 00:10:35;;;;;;;9.67;7.53;;;-0.70;99.90;;;;;;4969045;28;20452;-71
2021/12/03 00:13:02;;;;;;;14.63;8.77;;;-0.90;99.90;;;;;;4969675;28;20090;-71
2021/12/03 00:15:27;;;;;;;9.80;7.33;;;-0.70;99.90;;;;;;4970275;28;20023;-71
2021/12/03 00:17:54;;;;;;;11.13;7.73;;;-0.60;99.90;;;;;;4969318;28;20499;-71
2021/12/03 00:20:21;;;;;;;9.20;7.50;;;-0.80;99.90;;;;;;4970330;28;20081;-71
2021/12/03 00:22:50;;;;;;;9.93;7.17;;;-0.80;99.90;;;;;;4969197;28;20066;-71
2021/12/03 00:25:16;;;;;;;11.00;8.23;;;-0.80;99.90;;;;;;4970134;28;20417;-72
2021/12/03 00:27:43;;;;;;;11.60;7.93;;;-0.70;99.90;;;;;;4969181;28;20042;-71
2021/12/03 00:30:11;;;;;;;13.00;8.73;;;-1.20;99.90;;;;;;4969566;28;20255;-71
2021/12/03 00:32:37;;;;;;;10.77;8.60;;;-0.80;99.90;;;;;;4969880;28;20027;-71
2021/12/03 00:35:05;;;;;;;9.93;8.50;;;-0.80;99.90;;;;;;4969696;28;20358;-71
2021/12/03 00:37:31;;;;;;;13.57;8.83;;;;;;;;;;4969685;28;20034;-71
2021/12/03 00:39:57;;;;;;;12.53;8.20;;;-0.90;99.90;;;;;;4969461;28;20027;-71
2021/12/03 00:42:24;;;;;;;10.47;6.37;;;-0.90;99.90;;;;;;4970119;28;20364;-71
2021/12/03 00:44:53;;;;;;;9.17;7.33;;;;;;;;;;4970055;28;20030;-71
2021/12/03 00:47:19;;;;;;;13.80;8.73;;;-0.80;99.90;;;;;;4970066;28;20026;-71
2021/12/03 00:49:45;;;;;;;10.47;9.27;;;;;;;;;;4970007;28;20162;-71
2021/12/03 00:52:10;;;;;;;17.17;10.07;;;-1.10;99.90;;;;;;4968910;28;20094;-71
2021/12/03 00:54:36;;;;;;;13.47;9.43;;;;;;;;;;4968492;28;20039;-71
2021/12/03 00:57:05;;;;;;;13.43;9.70;;;-1.00;99.90;;;;;;4969737;28;20098;-71
2021/12/03 00:59:31;;;;;;;13.17;10.37;;;;;;;;;;4968593;28;20190;-71
2021/12/03 01:01:57;;;;;;;13.27;10.20;;;-0.90;99.90;;;;;;4968024;28;20555;-71
2021/12/03 01:04:23;;;;;;;13.90;10.80;;;-0.90;99.90;;;;;;4969757;28;20046;-71
2021/12/03 01:06:48;;;;;;;12.93;10.07;;;-0.80;99.90;;;;;;4969522;28;20480;-71
2021/12/03 01:09:15;;;;;;;13.07;10.50;;;-1.00;99.90;;;;;;4972651;28;20380;-71
2021/12/03 01:11:40;;;;;;;16.10;9.70;;;-0.60;99.90;;;;;;4973349;28;20432;-71
2021/12/03 01:14:07;;;;;;;14.20;10.57;;;;;;;;;;4972968;28;20072;-71
2021/12/03 01:16:33;;;;;;;12.90;11.00;;;-1.00;99.90;;;;;;4973060;28;20222;-71
2021/12/03 01:18:59;;;;;;;19.33;9.90;;;-1.00;99.90;;;;;;4972977;28;20027;-71
2021/12/03 01:21:25;;;;;;;13.73;10.00;;;-0.90;99.90;;;;;;4972409;28;20507;-71
2021/12/03 01:23:53;;;;;;;16.97;11.60;;;-0.80;99.90;;;;;;4972731;28;20038;-71
2021/12/03 01:26:20;;;;;;;16.33;11.57;;;-0.80;99.90;;;;;;4972788;28;20058;-71
2021/12/03 01:28:46;;;;;;;15.47;9.40;;;-0.70;99.90;;;;;;4972933;28;20027;-71
2021/12/03 01:31:14;;;;;;;12.67;10.57;;;-1.00;99.90;;;;;;4971096;28;20134;-71
2021/12/03 01:33:40;;;;;;;13.23;11.10;;;-0.80;99.90;;;;;;4972872;28;20106;-71
2021/12/03 01:36:06;;;;;;;12.80;10.63;;;-0.70;99.90;;;;;;4972170;28;20109;-71
2021/12/03 01:38:32;;;;;;;14.13;9.80;;;-0.70;99.90;;;;;;4972723;28;20026;-71
2021/12/03 01:40:57;;;;;;;15.67;10.40;;;-0.90;99.90;;;;;;4972554;28;20078;-71
2021/12/03 01:43:25;;;;;;;12.73;10.70;;;;;;;;;;4972242;28;20114;-71
2021/12/03 01:45:57;;;;;;;14.70;10.77;;;-0.80;99.90;;;;;;4972494;28;20028;-71
2021/12/03 01:48:22;;;;;;;12.97;10.40;;;-0.60;99.90;;;;;;4972267;28;20117;-71
2021/12/03 01:50:49;;;;;;;15.80;11.37;;;-0.70;99.90;;;;;;4970911;28;20061;-71
2021/12/03 01:53:18;;;;;;;21.23;14.50;;;-0.60;99.90;;;;;;4972291;28;20061;-71
2021/12/03 01:55:46;;;;;;;21.43;13.30;;;1.00;99.90;;;;;;4972467;28;20072;-71
2021/12/03 01:58:12;;;;;;;19.00;13.67;;;;;;;;;;4971976;28;20125;-71
2021/12/03 02:00:53;;;;;;;17.00;12.93;;;-0.50;99.90;;;;;;4972423;28;20141;-71
2021/12/03 02:03:25;;;;;;;23.07;13.77;;;-0.60;99.90;;;;;;4971991;28;20066;-71
2021/12/03 02:05:52;;;;;;;19.83;14.00;;;-0.40;99.90;;;;;;4971663;28;20034;-71
2021/12/03 02:08:18;;;;;;;21.10;14.87;;;;;;;;;;4972027;28;20019;-72
2021/12/03 02:10:45;;;;;;;16.10;13.10;;;-0.40;99.90;;;;;;4972190;28;20050;-71
2021/12/03 02:13:12;;;;;;;18.60;14.40;;;-0.50;99.90;;;;;;4971636;28;20038;-71
2021/12/03 02:15:39;;;;;;;25.33;13.73;;;-0.40;99.90;;;;;;4972090;28;20031;-71
2021/12/03 02:18:06;;;;;;;21.03;14.93;;;-0.30;99.90;;;;;;4971812;28;20046;-72
2021/12/03 02:20:32;;;;;;;20.47;12.50;;;0.10;99.90;;;;;;4970533;28;20472;-70
2021/12/03 02:22:58;;;;;;;17.47;12.50;;;-0.30;99.90;;;;;;4971590;28;20039;-71
2021/12/03 02:25:25;;;;;;;20.30;13.90;;;-0.40;99.90;;;;;;4971788;28;20054;-71
2021/12/03 02:27:55;;;;;;;20.53;14.50;;;-0.30;99.90;;;;;;4971487;28;20031;-71
2021/12/03 02:30:22;;;;;;;20.23;15.30;;;-0.20;99.90;;;;;;4971632;28;20022;-71
2021/12/03 02:32:50;;;;;;;26.70;17.47;;;-0.20;99.90;;;;;;4971823;28;20110;-71
2021/12/03 02:35:23;;;;;;;19.37;15.83;;;-0.20;99.90;;;;;;4971086;28;20130;-71
2021/12/03 02:37:50;;;;;;;24.10;15.03;;;-0.10;99.90;;;;;;4970527;28;20033;-71
2021/12/03 02:40:17;;;;;;;20.47;15.10;;;0.00;99.90;;;;;;4971421;28;20038;-71
2021/12/03 02:42:44;;;;;;;20.10;16.23;;;0.10;99.90;;;;;;4971300;28;20042;-71
2021/12/03 02:45:11;;;;;;;22.30;14.87;;;-0.10;99.90;;;;;;4971346;28;20405;-71
2021/12/03 02:47:36;;;;;;;21.33;12.80;;;0.50;99.90;;;;;;4971070;28;20038;-71
2021/12/03 02:50:04;;;;;;;22.20;15.20;;;0.00;99.90;;;;;;4970883;28;20035;-71
2021/12/03 02:52:30;;;;;;;19.23;14.13;;;-0.10;99.90;;;;;;4971353;28;20101;-71
2021/12/03 02:54:55;;;;;;;20.83;15.07;;;;;;;;;;4971018;28;20472;-71
2021/12/03 02:57:21;;;;;;;17.37;12.90;;;0.50;99.90;;;;;;4971148;28;20129;-71
2021/12/03 02:59:47;;;;;;;24.43;14.47;;;;;;;;;;4971155;28;20034;-71
2021/12/03 03:02:13;;;;;;;26.53;15.60;;;0.10;99.90;;;;;;4969973;28;20026;-71
2021/12/03 03:04:39;;;;;;;22.80;16.13;;;;;;;;;;4969367;28;20038;-71
2021/12/03 03:07:05;;;;;;;20.00;14.07;;;0.20;99.90;;;;;;4970774;28;20085;-71
2021/12/03 03:09:31;;;;;;;21.23;15.30;;;;;;;;;;4970751;28;20354;-71
2021/12/03 03:11:57;;;;;;;17.83;12.57;;;0.00;99.90;;;;;;4970917;28;20026;-71
2021/12/03 03:14:23;;;;;;;27.60;15.97;;;0.10;99.90;;;;;;4970725;28;20034;-71
2021/12/03 03:16:51;;;;;;;22.07;17.10;;;-0.30;99.90;;;;;;4970478;28;20033;-71
2021/12/03 03:19:19;;;;;;;21.67;15.40;;;0.10;99.90;;;;;;4970422;28;20031;-71
2021/12/03 03:21:46;;;;;;;30.10;18.97;;;0.30;99.90;;;;;;4970968;28;20023;-71
2021/12/03 03:24:12;;;;;;;30.43;19.70;;;0.20;99.90;;;;;;4970027;28;20141;-71
2021/12/03 03:26:40;;;;;;;30.37;17.77;;;0.10;99.90;;;;;;4970904;28;20027;-71
2021/12/03 03:29:08;;;;;;;24.90;17.40;;;0.10;99.90;;;;;;4970202;28;20070;-71
2021/12/03 03:31:35;;;;;;;32.33;21.63;;;0.20;99.90;;;;;;4969631;28;20022;-71
2021/12/03 03:34:01;;;;;;;23.43;17.17;;;0.00;99.90;;;;;;4970498;28;20023;-71
2021/12/03 03:36:30;;;;;;;28.87;18.90;;;0.00;99.90;;;;;;4970171;28;20546;-71
2021/12/03 03:38:56;;;;;;;30.90;20.07;;;0.10;99.90;;;;;;4970265;28;20030;-71
2021/12/03 03:41:22;;;;;;;31.73;20.97;;;0.10;99.90;;;;;;4969454;28;20023;-71
2021/12/03 03:43:48;;;;;;;29.70;19.40;;;0.40;99.90;;;;;;4967877;28;20109;-71
2021/12/03 03:46:14;;;;;;;27.10;19.13;;;;;;;;;;4967363;28;20062;-71
2021/12/03 03:48:41;;;;;;;35.63;23.87;;;;;;;;;;4968356;28;20070;-71
2021/12/03 03:51:07;;;;;;;36.87;23.63;;;;;;;;;;4968233;28;20070;-71
2021/12/03 03:53:32;;;;;;;37.87;25.00;;;;;;;;;;4968096;28;20047;-70
2021/12/03 03:55:58;;;;;;;45.13;28.70;;;;;;;;;;4968227;28;20022;-70
2021/12/03 03:58:24;;;;;;;52.60;30.10;;;0.70;99.90;;;;;;4968917;28;20114;-71
2021/12/03 04:00:50;;;;;;;56.77;33.20;;;;;;;;;;4969283;28;20078;-71
2021/12/03 04:03:15;;;;;;;46.97;31.63;;;0.60;99.90;;;;;;4970143;28;20042;-70
2021/12/03 04:05:41;;;;;;;51.60;33.40;;;0.70;99.90;;;;;;4970146;28;20345;-71
2021/12/03 04:08:07;;;;;;;49.23;31.17;;;0.70;99.90;;;;;;4968942;28;20101;-71
2021/12/03 04:10:32;;;;;;;49.67;31.53;;;0.50;99.90;;;;;;4969546;28;20055;-71
2021/12/03 04:12:58;;;;;;;57.60;35.83;;;;;;;;;;4968464;28;20419;-71
2021/12/03 04:15:24;;;;;;;55.90;33.90;;;0.70;99.90;;;;;;4969400;28;20069;-71
2021/12/03 04:17:50;;;;;;;61.67;35.93;;;0.80;99.90;;;;;;4969737;28;20030;-70
2021/12/03 04:20:18;;;;;;;59.40;37.90;;;0.90;99.90;;;;;;4969891;28;20380;-70
2021/12/03 04:22:44;;;;;;;60.30;36.30;;;1.10;99.90;;;;;;4969616;28;20634;-71
2021/12/03 04:25:13;;;;;;;58.27;35.33;;;1.00;99.90;;;;;;4969675;28;20046;-70
2021/12/03 04:27:40;;;;;;;65.23;38.10;;;1.10;99.90;;;;;;4970018;28;20395;-70
2021/12/03 04:30:10;;;;;;;70.87;39.03;;;1.10;99.90;;;;;;4968975;28;20031;-70
2021/12/03 04:32:35;;;;;;;66.43;39.17;;;1.10;99.90;;;;;;4969813;28;20102;-71
2021/12/03 04:35:01;;;;;;;62.30;37.33;;;1.00;99.90;;;;;;4969597;28;20118;-71
2021/12/03 04:37:27;;;;;;;63.40;39.50;;;;;;;;;;4969568;28;20122;-70
2021/12/03 04:39:52;;;;;;;73.80;39.57;;;1.10;99.90;;;;;;4969559;28;20539;-70
2021/12/03 04:42:19;;;;;;;59.67;32.03;;;;;;;;;;4970124;28;20026;-70
2021/12/03 04:44:44;;;;;;;59.83;34.00;;;1.00;99.90;;;;;;4963345;28;20498;-70
2021/12/03 04:47:10;;;;;;;70.53;39.53;;;;;;;;;;4973457;28;20485;-70
2021/12/03 04:49:36;;;;;;;79.03;39.87;;;1.40;99.90;;;;;;4973466;28;20030;-70
2021/12/03 04:52:02;;;;;;;90.67;41.90;;;1.40;99.90;;;;;;4973221;28;20185;-70
2021/12/03 04:54:28;;;;;;;89.07;44.13;;;1.20;99.90;;;;;;4973278;28;20496;-71
2021/12/03 04:56:55;;;;;;;98.40;46.13;;;1.30;99.90;;;;;;4973220;28;20026;-70
2021/12/03 04:59:21;;;;;;;93.63;42.67;;;1.30;99.90;;;;;;4973009;28;20030;-71
2021/12/03 05:01:47;;;;;;;97.73;45.00;;;1.20;99.90;;;;;;4973346;28;20031;-71
2021/12/03 05:04:12;;;;;;;107.10;46.13;;;1.40;99.90;;;;;;4961768;28;20116;-71
2021/12/03 05:09:42;;;;;;;101.47;44.57;;;1.20;99.90;;;;;;4932246;29;20502;-70
2021/12/03 05:12:08;;;;;;;100.33;43.97;;;1.40;99.90;;;;;;4932015;29;20031;-70
2021/12/03 05:14:34;;;;;;;87.17;41.23;;;1.20;99.90;;;;;;4930877;29;20114;-71
2021/12/03 05:16:59;;;;;;;106.27;44.73;;;1.30;99.90;;;;;;4931976;29;20035;-70
2021/12/03 05:19:25;;;;;;;106.70;46.27;;;1.50;99.90;;;;;;4932213;29;20039;-71
2021/12/03 05:21:50;;;;;;;111.27;47.83;;;1.30;99.90;;;;;;4919689;29;20048;-71
2021/12/03 05:24:16;;;;;;;111.13;46.97;;;1.40;99.90;;;;;;4911110;29;20048;-71
2021/12/03 05:26:44;;;;;;;134.80;51.17;;;1.40;99.90;;;;;;4921118;29;20039;-71
2021/12/03 05:29:10;;;;;;;120.43;48.87;;;1.40;99.90;;;;;;4931670;29;20542;-71
2021/12/03 05:31:37;;;;;;;114.97;47.70;;;1.40;99.90;;;;;;4931901;29;20036;-71
2021/12/03 05:34:04;;;;;;;108.50;45.77;;;1.40;99.90;;;;;;4931985;29;20040;-71
2021/12/03 05:36:30;;;;;;;96.50;46.17;;;;;;;;;;4931963;29;20023;-70
2021/12/03 05:38:56;;;;;;;96.03;44.33;;;1.60;99.90;;;;;;4931651;29;20035;-71
2021/12/03 05:41:22;;;;;;;98.43;44.83;;;;;;;;;;4967477;28;20531;-71
2021/12/03 05:43:48;;;;;;;98.83;42.13;;;;;;;;;;4970626;28;20038;-71
2021/12/03 05:46:14;;;;;;;119.20;49.23;;;1.50;99.90;;;;;;4972144;28;20467;-71
2021/12/03 05:48:40;;;;;;;129.03;51.53;;;1.70;99.90;;;;;;4972706;28;20103;-71
2021/12/03 05:51:06;;;;;;;114.47;49.27;;;;;;;;;;4972323;28;20050;-71
2021/12/03 05:53:32;;;;;;;93.33;43.83;;;1.60;99.90;;;;;;4966195;28;20138;-71
2021/12/03 05:55:58;;;;;;;100.43;48.93;;;;;;;;;;4959076;28;20043;-71
2021/12/03 05:58:24;;;;;;;107.17;49.03;;;1.50;99.90;;;;;;4970689;28;20065;-71
2021/12/03 06:00:50;;;;;;;90.37;46.57;;;1.70;99.90;;;;;;4953077;28;20436;-71
2021/12/03 06:03:16;;;;;;;107.00;46.73;;;1.50;99.90;;;;;;4952706;29;20047;-71
2021/12/03 06:05:42;;;;;;;119.00;52.03;;;1.60;99.90;;;;;;4953275;29;20518;-71
2021/12/03 06:08:08;;;;;;;110.87;51.00;;;1.70;99.90;;;;;;4953760;28;20038;-71
2021/12/03 06:10:35;;;;;;;99.47;46.77;;;1.50;99.90;;;;;;4950923;28;20449;-71
2021/12/03 06:13:01;;;;;;;91.33;41.53;;;1.80;99.90;;;;;;4952766;28;20030;-71
2021/12/03 06:15:28;;;;;;;106.30;46.73;;;;;;;;;;4953769;28;20118;-71
2021/12/03 06:17:54;;;;;;;96.27;42.23;;;1.80;99.90;;;;;;4951212;29;20027;-71
2021/12/03 06:20:20;;;;;;;110.27;43.97;;;;;;;;;;4952595;28;20036;-71
2021/12/03 06:22:46;;;;;;;105.53;45.87;;;1.40;99.90;;;;;;4952853;29;20469;-71
2021/12/03 06:25:14;;;;;;;102.30;48.00;;;1.70;99.90;;;;;;4963460;28;20058;-71
2021/12/03 06:27:43;;;;;;;104.37;46.43;;;2.90;99.90;;;;;;4971876;28;20038;-71
2021/12/03 06:30:13;;;;;;;95.63;43.83;;;1.70;99.90;;;;;;4971678;28;20122;-71
2021/12/03 06:32:39;;;;;;;111.33;48.23;;;1.80;99.90;;;;;;4971909;28;20177;-71
2021/12/03 06:35:07;;;;;;;94.73;43.90;;;1.70;99.90;;;;;;4971641;28;20039;-71
2021/12/03 06:37:33;;;;;;;84.17;39.80;;;1.90;99.90;;;;;;4971558;28;20507;-71
2021/12/03 06:39:59;;;;;;;88.97;39.90;;;;;;;;;;4962948;28;20038;-71
2021/12/03 06:42:25;;;;;;;83.40;37.17;;;1.70;99.90;;;;;;4950939;29;20023;-71
2021/12/03 06:44:50;;;;;;;92.47;40.03;;;1.70;99.90;;;;;;4952023;28;20437;-71
2021/12/03 06:47:16;;;;;;;108.07;47.33;;;1.90;99.90;;;;;;4950998;29;20495;-71
2021/12/03 06:49:42;;;;;;;81.43;40.23;;;;;;;;;;4952267;29;20540;-72
2021/12/03 06:52:11;;;;;;;107.40;45.40;;;1.90;99.90;;;;;;4951971;29;20111;-71
2021/12/03 06:54:37;;;;;;;88.50;41.60;;;1.90;99.90;;;;;;4955478;28;20110;-71
2021/12/03 06:57:05;;;;;;;88.60;38.07;;;1.90;99.90;;;;;;4971186;28;20110;-71
2021/12/03 06:59:32;;;;;;;82.80;36.63;;;;;;;;;;4971293;28;20019;-71
2021/12/03 07:01:58;;;;;;;72.57;33.27;;;2.00;99.90;;;;;;4971173;28;20712;-71
2021/12/03 07:04:24;;;;;;;71.63;37.00;;;1.80;99.90;;;;;;4969637;28;20039;-71
2021/12/03 07:06:50;;;;;;;74.27;35.40;;;;;;;;;;4969701;28;20073;-71
2021/12/03 07:09:16;;;;;;;70.10;35.67;;;2.00;99.90;;;;;;4968325;28;20046;-71
2021/12/03 07:11:42;;;;;;;67.47;36.07;;;;;;;;;;4952034;28;20391;-71
2021/12/03 07:14:08;;;;;;;56.53;29.17;;;1.90;99.90;;;;;;4969137;28;20023;-71
2021/12/03 07:16:34;;;;;;;57.40;30.63;;;;;;;;;;4965306;28;20031;-71
2021/12/03 07:19:00;;;;;;;59.00;30.93;;;2.00;99.90;;;;;;4961790;28;20050;-71
2021/12/03 07:21:26;;;;;;;55.97;27.07;;;1.90;99.90;;;;;;4970833;28;20110;-72
2021/12/03 07:23:53;;;;;;;61.43;29.40;;;2.00;99.90;;;;;;4970156;28;20587;-71
2021/12/03 07:26:20;;;;;;;59.63;31.37;;;2.10;99.90;;;;;;4970767;28;20023;-71
2021/12/03 07:28:45;;;;;;;58.87;29.53;;;2.00;99.90;;;;;;4970602;28;20027;-71
2021/12/03 07:31:11;;;;;;;56.70;28.43;;;1.90;99.90;;;;;;4970411;28;20034;-71
2021/12/03 07:33:38;;;;;;;50.63;25.90;;;2.50;99.90;;;;;;4970913;28;20026;-71
2021/12/03 07:36:05;;;;;;;43.80;24.17;;;1.80;99.90;;;;;;4970617;28;20026;-72
2021/12/03 07:38:31;;;;;;;47.63;23.63;;;2.40;99.90;;;;;;4970268;28;20019;-72
2021/12/03 07:40:57;;;;;;;48.43;24.77;;;1.90;99.90;;;;;;4970272;28;20019;-72
2021/12/03 07:43:23;;;;;;;45.87;24.13;;;;;;;;;;4970385;28;20061;-72
2021/12/03 07:45:49;;;;;;;43.73;21.47;;;2.00;99.90;;;;;;4971030;28;20511;-72
2021/12/03 07:48:15;;;;;;;36.60;20.80;;;2.00;99.90;;;;;;4970316;28;20150;-72
2021/12/03 07:50:42;;;;;;;46.60;19.97;;;2.50;99.90;;;;;;4970694;28;20027;-71
2021/12/03 07:53:13;;;;;;;45.67;19.27;;;1.80;99.90;;;;;;4969743;28;20023;-72
2021/12/03 07:55:38;;;;;;;35.20;18.30;;;2.10;99.90;;;;;;4970320;28;20121;-72
2021/12/03 07:58:04;;;;;;;34.30;17.13;;;2.20;99.90;;;;;;4970199;28;20090;-72
2021/12/03 08:00:30;;;;;;;32.97;17.50;;;2.00;99.90;;;;;;4970136;28;20109;-72
2021/12/03 08:02:56;;;;;;;28.53;16.27;;;;;;;;;;4970167;28;20154;-71
2021/12/03 08:05:22;;;;;;;27.53;14.67;;;2.00;99.90;;;;;;4970155;28;20058;-71
2021/12/03 08:07:49;;;;;;;32.17;15.80;;;2.20;99.90;;;;;;4970042;28;20093;-72
2021/12/03 08:10:15;;;;;;;35.87;15.50;;;2.00;99.90;;;;;;4969653;28;20066;-72
2021/12/03 08:12:43;;;;;;;24.53;13.10;;;2.00;99.90;;;;;;4970074;28;20031;-72
2021/12/03 08:15:09;;;;;;;28.77;11.87;;;;;;;;;;4970019;28;20023;-71
2021/12/03 08:17:35;;;;;;;21.30;11.40;;;;;;;;;;4971361;28;20030;-72
2021/12/03 08:20:01;;;;;;;25.10;11.63;;;2.00;99.90;;;;;;4974105;28;20042;-72
2021/12/03 08:22:27;;;;;;;26.03;11.33;;;;;;;;;;4973536;28;20031;-71
2021/12/03 08:24:52;;;;;;;20.93;11.03;;;2.00;99.90;;;;;;4973898;28;20347;-72
2021/12/03 08:27:19;;;;;;;20.23;9.00;;;;;;;;;;4973505;28;20491;-72
2021/12/03 08:29:44;;;;;;;27.47;11.87;;;2.20;99.90;;;;;;4968897;28;20031;-72
2021/12/03 08:32:10;;;;;;;27.63;12.23;;;2.30;99.90;;;;;;4963198;28;20030;-72
2021/12/03 08:34:36;;;;;;;24.20;10.83;;;2.20;99.90;;;;;;4965101;28;20035;-72
2021/12/03 08:37:02;;;;;;;19.97;10.23;;;;;;;;;;4953658;28;20214;-72
2021/12/03 08:39:30;;;;;;;23.87;10.63;;;2.50;99.90;;;;;;4956929;28;20126;-72
2021/12/03 08:41:56;;;;;;;19.90;8.90;;;2.40;99.90;;;;;;4972342;28;20027;-73
2021/12/03 08:44:22;;;;;;;23.57;9.87;;;;;;;;;;4971101;28;20495;-73
2021/12/03 08:46:57;;;;;;;19.40;10.07;;;2.40;99.90;;;;;;5063141;23;20001;-73
2021/12/03 08:49:31;;;;;;;18.70;9.20;;;2.30;99.90;;;;;;4936984;28;20111;-72
2021/12/03 08:57:09;;;;;;;16.73;8.30;;;2.40;99.90;;;;;;4933228;29;20058;-73
2021/12/03 08:59:34;;;;;;;15.10;7.50;;;2.60;99.90;;;;;;4933142;29;20036;-73
2021/12/03 09:02:00;;;;;;;18.83;8.70;;;;;;;;;;4933055;29;20032;-73
2021/12/03 09:04:29;;;;;;;20.60;9.27;;;2.60;99.90;;;;;;4933721;29;20051;-74
2021/12/03 09:06:56;;;;;;;18.33;8.20;;;2.70;99.90;;;;;;4932725;29;20035;-73
2021/12/03 09:09:22;;;;;;;17.10;7.83;;;;;;;;;;4933671;29;20063;-73
2021/12/03 09:11:48;;;;;;;15.50;9.23;;;2.80;99.90;;;;;;4932633;29;20095;-73
2021/12/03 09:14:37;;;;;;;19.67;8.77;;;2.90;99.90;;;;;;4933920;29;20095;-73
2021/12/03 09:25:13;;;;;;;15.73;7.97;;;3.20;99.90;;;;;;4933565;29;20043;-71
2021/12/03 09:27:39;;;;;;;19.93;7.57;;;2.90;99.90;;;;;;4933560;29;20094;-71
2021/12/03 09:30:07;;;;;;;19.13;8.07;;;3.10;99.90;;;;;;4933221;29;20036;-72
2021/12/03 09:32:33;;;;;;;20.00;8.07;;;3.00;99.90;;;;;;4933734;29;20067;-71
2021/12/03 09:35:02;;;;;;;15.40;6.93;;;3.10;99.90;;;;;;4932214;29;20043;-72
2021/12/03 09:37:28;;;;;;;14.77;7.50;;;;;;;;;;4934161;29;20027;-71
2021/12/03 09:39:55;;;;;;;18.07;6.37;;;;;;;;;;4934370;29;20423;-72
2021/12/03 09:42:21;;;;;;;11.30;6.20;;;3.20;99.90;;;;;;4934369;29;20103;-71
2021/12/03 09:44:51;;;;;;;12.83;6.27;;;3.30;99.90;;;;;;4934538;29;20140;-71
2021/12/03 09:47:18;;;;;;;22.37;6.40;;;3.30;99.90;;;;;;4934333;29;20034;-72
2021/12/03 09:49:45;;;;;;;11.27;6.17;;;3.30;99.90;;;;;;4932595;29;20034;-72
2021/12/03 09:54:49;;;;;;;16.67;7.20;;;3.20;99.90;;;;;;4929973;29;20039;-71
2021/12/03 10:03:37;;;;;;;17.90;4.90;;;3.40;99.90;;;;;;4934305;29;20024;-71
2021/12/03 10:13:36;;;;;;;10.23;4.53;;;3.40;99.90;;;;;;4914957;29;20092;-71
2021/12/03 10:16:13;;;;;;;17.17;6.37;;;3.50;99.90;;;;;;4927255;29;20023;-71
2021/12/03 10:24:24;;;;;;;13.07;4.40;;;3.60;99.90;;;;;;4922318;29;20055;-72
2021/12/03 10:27:05;;;;;;;19.73;4.80;;;3.60;99.90;;;;;;4932975;29;20112;-71
2021/12/03 10:34:49;;;;;;;16.73;4.63;;;3.70;99.90;;;;;;4933506;29;20031;-71
2021/12/03 10:47:58;;;;;;;12.97;4.87;;;3.60;99.90;;;;;;4932863;29;20064;-71
2021/12/03 11:03:48;;;;;;;17.83;6.10;;;3.90;99.90;;;;;;4931256;29;20043;-71
2021/12/03 11:42:14;;;;;;;13.03;5.63;;;4.20;99.90;;;;;;4873596;29;20045;-71
2021/12/03 12:10:46;;;;;;;16.30;6.03;;;4.60;99.90;;;;;;4930815;29;20554;-71
2021/12/03 12:14:36;;;;;;;15.27;7.30;;;4.70;99.90;;;;;;4913006;29;20032;-71
2021/12/03 12:25:19;;;;;;;18.27;6.67;;;4.90;99.90;;;;;;4927631;29;20102;-71
2021/12/03 12:36:40;;;;;;;14.57;5.20;;;5.40;99.90;;;;;;4910365;29;20032;-71
2021/12/03 12:42:30;;;;;;;13.77;5.77;;;;;;;;;;4891605;29;20075;-71
2021/12/03 12:45:19;;;;;;;18.67;7.13;;;3.80;99.90;;;;;;4896746;29;20028;-71
2021/12/03 12:56:21;;;;;;;12.83;5.90;;;5.00;99.90;;;;;;4918999;29;20089;-70
2021/12/03 12:57:08;;;;;;;8.63;4.40;;;4.10;99.90;;;;;;4929238;29;20538;-70
2021/12/03 13:05:38;;;;;;;14.03;4.23;;;4.90;99.90;;;;;;4912692;29;20100;-70
2021/12/03 13:08:10;;;;;;;9.30;4.77;;;5.00;99.90;;;;;;4913465;29;20446;-70
2021/12/03 13:16:45;;;;;;;15.37;5.13;;;5.00;99.90;;;;;;4934802;29;20109;-70
2021/12/03 13:19:17;;;;;;;9.83;4.33;;;5.00;99.90;;;;;;4934533;29;20480;-70
2021/12/03 14:33:32;;;;;;;5.37;2.80;;;4.60;99.90;;;;;;4933297;29;20039;-70
2021/12/03 14:56:04;;;;;;;9.38;3.80;;;4.50;99.90;;;;;;4921545;29;20030;-71
2021/12/03 14:58:40;;;;;;;6.37;3.47;;;;;;;;;;4930185;29;20051;-71
2021/12/03 15:01:16;;;;;;;6.67;4.70;;;;;;;;;;4930334;29;20372;-71
2021/12/03 15:06:45;;;;;;;9.10;4.70;;;4.50;99.90;;;;;;4923739;29;20119;-71
2021/12/03 15:22:55;;;;;;;10.60;4.90;;;4.40;99.90;;;;;;4931937;29;20059;-70
2021/12/03 15:25:50;;;;;;;6.90;4.83;;;4.20;99.90;;;;;;4921981;29;20040;-71
2021/12/03 15:31:20;;;;;;;7.37;4.67;;;4.40;99.90;;;;;;4922383;29;20066;-70
2021/12/03 15:34:30;;;;;;;10.80;5.00;;;4.30;99.90;;;;;;4932375;29;20504;-71
2021/12/03 15:36:59;;;;;;;8.93;6.57;;;4.20;99.90;;;;;;4931206;29;20099;-70
2021/12/03 15:39:51;;;;;;;7.07;4.90;;;;;;;;;;4932502;29;20051;-71
2021/12/03 16:04:21;;;;;;;6.67;5.97;;;;;;;;;;4918805;29;19970;-71
2021/12/03 16:10:03;;;;;;;11.88;7.20;;;;;;;;;;4931741;29;20435;-70
2021/12/03 16:15:26;;;;;;;13.00;7.93;;;4.30;99.90;;;;;;4931292;29;20125;-70
2021/12/03 16:18:14;;;;;;;8.23;6.77;;;4.20;99.90;;;;;;4930669;29;20024;-70
2021/12/03 16:45:20;;;;;;;13.30;9.75;;;4.20;99.90;;;;;;4894977;29;20059;-70
2021/12/03 16:48:02;;;;;;;10.10;8.90;;;4.20;99.90;;;;;;4895021;29;20033;-70
2021/12/03 16:53:24;;;;;;;;;;;4.20;99.90;;;;;;4881935;29;20101;-70
2021/12/03 16:55:59;;;;;;;10.13;7.43;;;4.30;99.90;;;;;;4893400;29;20023;-72
2021/12/03 16:58:25;;;;;;;10.03;9.03;;;4.30;99.90;;;;;;4892356;29;20063;-70
2021/12/03 17:00:59;;;;;;;8.57;7.77;;;4.40;99.90;;;;;;4893344;29;20051;-69
2021/12/03 17:03:35;;;;;;;10.20;9.20;;;4.40;99.90;;;;;;4915319;29;20047;-70
2021/12/03 17:07:06;;;;;;;9.27;8.20;;;4.50;99.90;;;;;;4952221;29;20027;-69
2021/12/03 17:09:17;;;;;;;10.93;9.17;;;4.40;99.90;;;;;;4952650;28;20663;-69
2021/12/03 17:17:56;;;;;;;9.00;8.17;;;;;;;;;;4933802;29;20032;-72
2021/12/03 17:20:31;;;;;;;12.47;11.13;;;4.40;99.90;;;;;;4933434;29;20365;-69
2021/12/03 17:45:34;;;;;;;;;;;4.50;99.90;;;;;;4930561;29;20039;-69
2021/12/03 17:48:13;;;;;;;8.77;7.87;;;4.90;99.90;;;;;;4932128;29;19965;-69
2021/12/03 17:51:35;;;;;;;10.53;9.43;;;4.50;99.90;;;;;;4932132;29;20107;-69
2021/12/03 17:56:16;;;;;;;9.57;8.68;;;4.50;99.90;;;;;;4931789;29;20038;-69
2021/12/03 17:58:52;;;;;;;11.83;10.63;;;4.90;99.90;;;;;;4914953;29;20032;-69
2021/12/03 18:01:44;;;;;;;9.70;8.80;;;4.60;99.90;;;;;;4914839;29;20035;-70
2021/12/03 18:04:19;;;;;;;10.03;9.03;;;4.80;99.90;;;;;;4915042;29;20052;-69
2021/12/03 18:09:46;;;;;;;10.20;9.20;;;4.80;99.90;;;;;;4933545;29;20031;-69
2021/12/03 18:15:21;;;;;;;9.97;8.60;;;;;;;;;;4933430;29;20389;-70
2021/12/03 18:18:19;;;;;;;9.33;8.43;;;4.60;99.90;;;;;;4922998;29;20051;-70
2021/12/03 18:50:58;;;;;;;10.30;9.32;;;;;;;;;;4933476;29;20051;-70
2021/12/03 18:56:05;;;;;;;10.07;9.07;;;4.90;99.90;;;;;;4932714;29;20039;-70
2021/12/03 18:58:31;;;;;;;10.70;9.70;;;4.80;99.90;;;;;;4919136;29;20031;-70
2021/12/03 19:00:58;;;;;;;11.53;10.37;;;4.80;99.90;;;;;;4917119;29;20560;-70
2021/12/03 19:08:42;;;;;;;10.53;9.40;;;4.70;99.90;;;;;;4927176;29;20081;-70
2021/12/03 19:13:41;;;;;;;12.33;11.13;;;;;;;;;;4932462;29;20031;-71
2021/12/03 19:16:10;;;;;;;13.63;12.23;;;4.70;99.90;;;;;;4932511;29;20114;-71
2021/12/03 19:18:37;;;;;;;13.80;12.37;;;4.70;99.90;;;;;;4931457;29;20031;-70
2021/12/03 19:21:08;;;;;;;14.33;12.97;;;5.00;99.90;;;;;;4930582;29;20090;-71
2021/12/03 19:23:34;;;;;;;15.10;13.60;;;4.70;99.90;;;;;;4929929;29;20488;-71
2021/12/03 19:25:59;;;;;;;12.83;11.53;;;4.70;99.90;;;;;;4939934;29;20063;-70
2021/12/03 19:28:25;;;;;;;12.90;11.70;;;;;;;;;;4913120;29;20397;-70
2021/12/03 19:30:54;;;;;;;16.37;14.77;;;4.70;99.90;;;;;;4928958;29;20378;-70
2021/12/03 19:33:19;;;;;;;15.10;13.50;;;4.70;99.90;;;;;;4932462;29;20086;-70
2021/12/03 19:35:45;;;;;;;13.43;12.13;;;4.70;99.90;;;;;;4932190;29;20111;-70
2021/12/03 19:38:14;;;;;;;13.73;12.43;;;;;;;;;;4932155;29;20457;-70
2021/12/03 19:40:46;;;;;;;14.23;12.73;;;;;;;;;;4913823;29;20045;-70
2021/12/03 19:43:15;;;;;;;16.10;14.50;;;;;;;;;;4912522;29;20020;-71
2021/12/03 19:45:49;;;;;;;15.03;13.27;;;;;;;;;;4913240;29;20397;-71
2021/12/03 19:48:16;;;;;;;12.37;11.27;;;;;;;;;;4913256;29;20043;-71
2021/12/03 19:50:44;;;;;;;15.47;13.87;;;4.70;99.90;;;;;;4927349;29;20027;-71
2021/12/03 19:53:16;;;;;;;17.90;16.10;;;4.70;99.90;;;;;;4930263;29;20063;-71
2021/12/03 19:55:42;;;;;;;13.43;12.03;;;4.60;99.90;;;;;;4926815;29;20389;-71
2021/12/03 19:58:09;;;;;;;15.03;13.53;;;4.50;99.90;;;;;;4928236;29;20027;-70